createdAt,value
2023-01-04T00:02:33.885Z,413.63
2023-01-04T00:05:15.932Z,391.80
2023-01-04T00:08:04.767Z,398.40
2023-01-04T00:10:46.920Z,412.23
2023-01-04T00:13:35.733Z,390.50
2023-01-04T00:16:30.157Z,414.95
2023-01-04T00:19:11.673Z,409.73
2023-01-04T00:21:59.923Z,407.73
2023-01-04T00:24:41.612Z,389.23
2023-01-04T00:27:30.024Z,399.85
2023-01-04T00:30:12.754Z,401.70
2023-01-04T00:33:02.112Z,394.08
2023-01-04T00:35:46.230Z,406.98
2023-01-04T00:38:34.930Z,393.75
2023-01-04T00:41:49.256Z,397.83
2023-01-04T00:47:13.720Z,406.58
2023-01-04T00:49:55.848Z,382.65
2023-01-04T00:52:44.670Z,403.20
2023-01-04T00:55:39.641Z,416.75
2023-01-04T00:58:27.908Z,415.63
2023-01-04T01:01:14.650Z,411.70
2023-01-04T01:04:07.299Z,419.95
2023-01-04T01:06:50.798Z,413.58
2023-01-04T01:09:38.929Z,426.58
2023-01-04T01:12:21.746Z,388.48
2023-01-04T01:15:04.022Z,393.73
2023-01-04T01:17:52.637Z,389.88
2023-01-04T01:20:34.901Z,391.23
2023-01-04T01:23:23.697Z,380.88
2023-01-04T01:26:18.677Z,396.58
2023-01-04T01:29:07.686Z,402.98
2023-01-04T01:31:50.073Z,392.90
2023-01-04T01:34:38.635Z,397.98
2023-01-04T01:37:26.973Z,387.70
2023-01-04T01:40:09.664Z,381.13
2023-01-04T01:42:52.099Z,385.40
2023-01-04T01:45:48.691Z,385.08
2023-01-04T01:48:31.518Z,379.05
2023-01-04T01:51:20.615Z,381.65
2023-01-04T01:54:21.491Z,395.10
2023-01-04T01:57:15.703Z,371.30
2023-01-04T02:00:02.064Z,343.90
2023-01-04T02:03:27.273Z,358.98
2023-01-04T02:06:12.944Z,346.50
2023-01-04T02:09:02.783Z,340.25
2023-01-04T02:11:44.966Z,349.45
2023-01-04T02:14:37.744Z,335.27
2023-01-04T02:17:25.430Z,358.08
2023-01-04T02:20:43.675Z,328.58
2023-01-04T02:24:02.663Z,354.13
2023-01-04T02:27:15.713Z,362.92
2023-01-04T02:30:32.629Z,341.67
2023-01-04T02:33:53.273Z,336.58
2023-01-04T02:36:55.581Z,341.45
2023-01-04T02:39:53.711Z,347.55
2023-01-04T02:43:15.722Z,380.17
2023-01-04T02:46:16.749Z,347.15
2023-01-04T02:49:24.692Z,353.23
2023-01-04T02:52:06.969Z,346.48
2023-01-04T02:54:57.590Z,358.67
2023-01-04T02:58:01.657Z,342.73
2023-01-04T03:01:46.841Z,332.95
2023-01-04T03:08:28.603Z,347.75
2023-01-04T03:11:39.503Z,354.30
2023-01-04T03:14:32.443Z,354.85
2023-01-04T03:17:18.623Z,350.65
2023-01-04T03:20:10.672Z,326.00
2023-01-04T03:23:22.252Z,338.52
2023-01-04T03:26:52.601Z,358.02
2023-01-04T03:30:18.106Z,358.60
2023-01-04T03:33:35.729Z,350.40
2023-01-04T03:36:42.959Z,331.45
2023-01-04T03:40:09.673Z,356.75
2023-01-04T03:43:40.442Z,357.52
2023-01-04T03:47:02.801Z,344.73
2023-01-04T03:49:58.388Z,335.90
2023-01-04T03:52:52.829Z,351.65
2023-01-04T03:55:43.939Z,342.85
2023-01-04T03:58:28.537Z,346.80
2023-01-04T04:01:19.672Z,355.25
2023-01-04T04:04:21.512Z,349.10
2023-01-04T04:07:29.690Z,352.30
2023-01-04T04:10:12.157Z,362.25
2023-01-04T04:13:00.670Z,355.13
2023-01-04T04:15:43.012Z,351.80
2023-01-04T04:18:31.597Z,373.05
2023-01-04T04:21:14.054Z,357.92
2023-01-04T04:24:05.537Z,348.30
2023-01-04T04:26:48.136Z,376.27
2023-01-04T04:29:36.659Z,348.35
2023-01-04T04:32:18.993Z,362.55
2023-01-04T04:35:07.683Z,355.98
2023-01-04T04:37:49.928Z,381.67
2023-01-04T04:40:56.698Z,347.33
2023-01-04T04:43:38.897Z,341.40
2023-01-04T04:46:27.654Z,330.17
2023-01-04T04:49:17.519Z,344.27
2023-01-04T04:52:06.614Z,339.98
2023-01-04T04:54:54.944Z,352.50
2023-01-04T04:57:36.662Z,363.23
2023-01-04T05:00:19.075Z,352.10
2023-01-04T05:03:07.777Z,367.17
2023-01-04T05:05:57.029Z,340.83
2023-01-04T05:08:38.568Z,354.17
2023-01-04T05:11:40.560Z,355.95
2023-01-04T05:14:29.696Z,362.83
2023-01-04T05:17:18.542Z,343.15
2023-01-04T05:20:00.510Z,350.60
2023-01-04T05:22:48.836Z,364.92
2023-01-04T05:25:31.577Z,357.33
2023-01-04T05:28:19.851Z,360.52
2023-01-04T05:31:03.599Z,355.83
2023-01-04T05:33:52.658Z,346.48
2023-01-04T05:36:34.932Z,345.17
2023-01-04T05:39:23.534Z,344.75
2023-01-04T05:42:30.648Z,353.27
2023-01-04T05:45:22.139Z,344.52
2023-01-04T05:48:03.597Z,355.55
2023-01-04T05:50:46.951Z,340.27
2023-01-04T05:53:35.582Z,346.13
2023-01-04T05:56:23.917Z,357.13
2023-01-04T05:59:06.545Z,343.45
2023-01-04T06:01:55.781Z,355.50
2023-01-04T06:04:37.985Z,353.95
2023-01-04T06:07:26.565Z,328.85
2023-01-04T06:10:08.864Z,347.45
2023-01-04T06:12:57.539Z,360.80
2023-01-04T06:15:46.588Z,352.42
2023-01-04T06:18:34.942Z,334.35
2023-01-04T06:21:16.912Z,325.23
2023-01-04T06:24:04.909Z,339.38
2023-01-04T06:26:47.527Z,343.67
2023-01-04T06:29:37.003Z,345.67
2023-01-04T06:32:19.638Z,341.27
2023-01-04T06:35:08.634Z,340.70
2023-01-04T06:37:50.930Z,350.48
2023-01-04T06:40:39.569Z,348.08
2023-01-04T06:43:21.932Z,342.98
2023-01-04T06:46:11.651Z,341.80
2023-01-04T06:48:55.039Z,340.73
2023-01-04T06:51:43.645Z,352.05
2023-01-04T06:54:40.481Z,437.95
2023-01-04T06:57:29.462Z,441.08
2023-01-04T07:00:13.869Z,435.75
2023-01-04T07:03:13.935Z,430.48
2023-01-04T07:05:56.927Z,428.45
2023-01-04T07:08:45.620Z,417.65
2023-01-04T07:11:27.942Z,418.58
2023-01-04T07:14:16.680Z,416.90
2023-01-04T07:16:58.976Z,404.65
2023-01-04T07:19:47.649Z,412.17
2023-01-04T07:22:29.966Z,424.38
2023-01-04T07:25:18.649Z,407.33
2023-01-04T07:28:01.906Z,390.52
2023-01-04T07:30:50.672Z,400.63
2023-01-04T07:33:33.088Z,377.00
2023-01-04T07:36:21.545Z,388.88
2023-01-04T07:39:10.503Z,392.88
2023-01-04T07:42:05.665Z,390.05
2023-01-04T07:44:48.222Z,403.77
2023-01-04T07:47:37.697Z,408.02
2023-01-04T07:50:19.796Z,415.27
2023-01-04T07:53:08.580Z,391.48
2023-01-04T07:56:01.928Z,410.20
2023-01-04T07:58:44.444Z,414.40
2023-01-04T08:01:36.596Z,401.08
2023-01-04T08:04:21.649Z,396.80
2023-01-04T08:07:09.889Z,414.15
2023-01-04T08:09:52.562Z,414.55
2023-01-04T08:12:40.843Z,421.08
2023-01-04T08:15:22.496Z,424.23
2023-01-04T08:18:11.882Z,419.35
2023-01-04T08:20:58.389Z,414.38
2023-01-04T08:23:47.539Z,392.95
2023-01-04T08:26:37.890Z,414.98
2023-01-04T08:29:19.765Z,423.73
2023-01-04T08:32:08.538Z,405.30
2023-01-04T08:34:50.807Z,417.55
2023-01-04T08:37:39.732Z,396.15
2023-01-04T08:40:21.789Z,420.45
2023-01-04T08:43:10.585Z,403.98
2023-01-04T08:45:59.522Z,411.35
2023-01-04T08:48:49.546Z,408.55
2023-01-04T08:51:37.902Z,403.73
2023-01-04T08:54:21.459Z,427.58
2023-01-04T08:57:16.636Z,397.45
2023-01-04T09:00:05.478Z,421.40
2023-01-04T09:02:47.801Z,424.48
2023-01-04T09:05:36.520Z,407.70
2023-01-04T09:08:18.886Z,409.92
2023-01-04T09:11:11.638Z,421.80
2023-01-04T09:13:54.935Z,418.60
2023-01-04T09:16:44.820Z,422.88
2023-01-04T09:19:26.885Z,403.38
2023-01-04T09:22:15.669Z,424.55
2023-01-04T09:24:57.863Z,429.30
2023-01-04T09:27:47.598Z,423.42
2023-01-04T09:30:32.760Z,422.10
2023-01-04T09:33:27.872Z,443.83
2023-01-04T09:36:26.134Z,433.20
2023-01-04T09:39:11.839Z,423.58
2023-01-04T09:42:06.837Z,434.08
2023-01-04T09:45:25.525Z,416.85
2023-01-04T09:48:25.028Z,421.02
2023-01-04T09:51:31.635Z,439.73
2023-01-04T09:54:34.442Z,420.67
2023-01-04T09:57:53.659Z,437.80
2023-01-04T10:01:11.685Z,432.73
2023-01-04T10:04:11.494Z,424.02
2023-01-04T10:06:55.372Z,407.88
2023-01-04T10:09:46.535Z,426.25
2023-01-04T10:13:17.494Z,424.52
2023-01-04T10:34:31.076Z,387.20
2023-01-04T10:37:19.188Z,400.42
2023-01-04T10:40:09.927Z,386.45
2023-01-04T10:43:07.944Z,394.23
2023-01-04T10:46:13.435Z,398.50
2023-01-04T10:49:23.972Z,397.42
2023-01-04T10:52:15.303Z,383.90
2023-01-04T10:55:11.071Z,398.95
2023-01-04T10:58:28.342Z,384.85
2023-01-04T11:01:33.173Z,408.10
2023-01-04T11:04:48.302Z,399.92
2023-01-04T11:07:50.061Z,395.50
2023-01-04T11:10:43.286Z,388.85
2023-01-04T11:13:32.900Z,396.38
2023-01-04T11:16:23.040Z,404.85
2023-01-04T11:19:13.272Z,389.48
2023-01-04T11:22:05.063Z,393.77
2023-01-04T11:25:33.073Z,382.65
2023-01-04T11:28:17.960Z,380.98
2023-01-04T11:31:18.309Z,366.52
2023-01-04T11:34:11.872Z,354.33
2023-01-04T11:36:55.355Z,351.45
2023-01-04T11:39:45.909Z,354.15
2023-01-04T11:42:30.921Z,372.15
2023-01-04T11:45:31.886Z,354.85
2023-01-04T11:48:20.900Z,343.90
2023-01-04T11:51:16.896Z,340.77
2023-01-04T11:54:11.823Z,358.27
2023-01-04T11:57:18.011Z,346.25
2023-01-04T12:00:33.043Z,349.80
2023-01-04T12:03:26.288Z,357.77
2023-01-04T12:06:08.985Z,377.80
2023-01-04T12:08:58.047Z,384.33
2023-01-04T12:11:44.305Z,401.67
2023-01-04T12:14:43.845Z,384.33
2023-01-04T12:17:52.360Z,399.75
2023-01-04T12:20:40.897Z,383.13
2023-01-04T12:23:23.403Z,391.75
2023-01-04T12:26:12.006Z,367.95
2023-01-04T12:28:59.426Z,367.40
2023-01-04T12:31:53.962Z,365.58
2023-01-04T12:34:42.362Z,342.63
2023-01-04T12:37:54.066Z,357.48
2023-01-04T12:40:48.877Z,336.45
2023-01-04T12:43:44.834Z,325.85
2023-01-04T12:46:50.340Z,342.83
2023-01-04T12:49:43.371Z,349.02
2023-01-04T12:52:47.988Z,341.07
2023-01-04T12:55:43.657Z,339.27
2023-01-04T12:59:23.665Z,355.27
2023-01-04T13:01:42.273Z,360.00
2023-01-04T13:04:44.490Z,380.20
2023-01-04T13:08:11.996Z,365.40
2023-01-04T13:10:57.003Z,341.17
2023-01-04T13:14:04.958Z,344.23
2023-01-04T13:17:18.350Z,354.42
2023-01-04T13:20:06.932Z,348.23
2023-01-04T13:23:02.297Z,341.33
2023-01-04T13:25:45.016Z,361.27
2023-01-04T13:28:33.272Z,355.88
2023-01-04T13:31:15.984Z,370.35
2023-01-04T13:34:06.280Z,361.77
2023-01-04T13:36:48.957Z,381.77
2023-01-04T13:39:38.258Z,339.05
2023-01-04T13:42:32.956Z,357.40
2023-01-04T13:45:36.307Z,360.38
2023-01-04T13:48:23.946Z,371.65
2023-01-04T13:51:36.122Z,369.33
2023-01-04T13:54:28.878Z,356.50
2023-01-04T13:57:27.980Z,337.88
2023-01-04T14:00:15.730Z,348.45
2023-01-04T14:03:41.098Z,353.02
2023-01-04T14:06:31.338Z,376.50
2023-01-04T14:09:21.054Z,346.33
2023-01-04T14:12:14.930Z,339.63
2023-01-04T14:15:09.971Z,332.25
2023-01-04T14:17:56.018Z,346.95
2023-01-04T14:20:48.862Z,338.38
2023-01-04T14:23:39.956Z,338.05
2023-01-04T14:26:48.871Z,330.80
2023-01-04T14:29:32.671Z,334.92
2023-01-04T14:32:24.024Z,340.27
2023-01-04T14:35:15.239Z,394.00
2023-01-04T14:38:04.081Z,388.33
2023-01-04T14:40:54.215Z,394.83
2023-01-04T14:44:16.908Z,366.25
2023-01-04T14:47:07.066Z,371.90
2023-01-04T14:49:56.011Z,360.05
2023-01-04T14:52:44.194Z,350.98
2023-01-04T14:55:26.938Z,365.08
2023-01-04T14:58:15.310Z,357.25
2023-01-04T15:00:56.924Z,332.98
2023-01-04T15:03:47.038Z,366.98
2023-01-04T15:06:29.214Z,365.90
2023-01-04T15:09:18.861Z,357.00
2023-01-04T15:12:01.336Z,339.55
2023-01-04T15:14:50.017Z,343.73
2023-01-04T15:17:32.208Z,358.75
2023-01-04T15:20:21.998Z,341.80
2023-01-04T15:23:04.252Z,333.48
2023-01-04T15:25:52.857Z,340.77
2023-01-04T15:28:35.209Z,336.73
2023-01-04T15:31:29.200Z,346.52
2023-01-04T15:34:19.280Z,346.27
2023-01-04T15:37:01.087Z,324.02
2023-01-04T15:39:43.120Z,334.40
2023-01-04T15:42:49.935Z,361.95
2023-01-04T15:45:38.113Z,364.90
2023-01-04T15:48:26.901Z,389.77
2023-01-04T15:51:15.906Z,357.77
2023-01-04T15:54:00.281Z,350.58
2023-01-04T15:56:49.022Z,346.00
2023-01-04T15:59:32.212Z,353.60
2023-01-04T16:02:21.334Z,371.00
2023-01-04T16:05:03.199Z,335.52
2023-01-04T16:07:56.006Z,337.70
2023-01-04T16:10:38.303Z,341.80
2023-01-04T16:13:26.857Z,341.92
2023-01-04T16:16:09.369Z,317.60
2023-01-04T16:19:00.869Z,329.08
2023-01-04T16:21:49.900Z,331.52
2023-01-04T16:25:10.026Z,348.40
2023-01-04T16:27:48.989Z,339.20
2023-01-04T16:30:36.073Z,327.58
2023-01-04T16:33:24.872Z,346.38
2023-01-04T16:36:09.667Z,322.85
2023-01-04T16:39:00.993Z,317.88
2023-01-04T16:41:44.190Z,330.42
2023-01-04T16:44:33.063Z,331.85
2023-01-04T16:47:21.384Z,328.77
2023-01-04T16:50:03.908Z,331.25
2023-01-04T16:52:46.123Z,355.75
2023-01-04T16:55:34.862Z,334.92
2023-01-04T16:58:23.868Z,367.73
2023-01-04T17:01:31.089Z,347.08
2023-01-04T17:04:21.025Z,327.10
2023-01-04T17:07:10.309Z,338.23
2023-01-04T17:09:58.538Z,333.48
2023-01-04T17:12:48.456Z,333.90
2023-01-04T17:15:45.219Z,343.75
2023-01-04T17:18:27.319Z,340.20
2023-01-04T17:21:35.836Z,334.60
2023-01-04T17:24:18.460Z,332.45
2023-01-04T17:27:06.926Z,331.33
2023-01-04T17:29:56.825Z,341.75
2023-01-04T17:32:45.945Z,321.30
2023-01-04T17:35:28.276Z,320.52
2023-01-04T17:38:16.944Z,304.92
2023-01-04T17:40:59.256Z,315.42
2023-01-04T17:43:48.878Z,307.42
2023-01-04T17:46:41.971Z,299.88
2023-01-04T17:49:32.387Z,299.50
2023-01-04T17:52:21.042Z,284.60
2023-01-04T17:55:11.220Z,271.08
2023-01-04T17:57:53.878Z,285.40
2023-01-04T18:00:36.299Z,280.27
2023-01-04T18:03:24.889Z,293.92
2023-01-04T18:06:25.319Z,290.17
2023-01-04T18:09:09.948Z,293.75
2023-01-04T18:11:59.364Z,308.02
2023-01-04T18:14:40.773Z,292.20
2023-01-04T18:17:24.317Z,303.92
2023-01-04T18:20:23.968Z,301.25
2023-01-04T18:23:07.182Z,276.88
2023-01-04T18:25:56.976Z,288.20
2023-01-04T18:28:46.226Z,284.95
2023-01-04T18:31:31.066Z,294.52
2023-01-04T18:34:20.232Z,293.02
2023-01-04T18:37:02.849Z,294.88
2023-01-04T18:39:45.327Z,266.80
2023-01-04T18:42:34.034Z,301.73
2023-01-04T18:45:24.210Z,274.63
2023-01-04T18:48:05.779Z,316.38
2023-01-04T18:50:55.348Z,362.33
2023-01-04T18:53:36.951Z,270.60
2023-01-04T18:56:26.797Z,302.08
2023-01-04T18:59:09.368Z,252.13
2023-01-04T19:01:58.090Z,254.43
2023-01-04T19:04:42.236Z,368.73
2023-01-04T19:07:30.982Z,351.92
2023-01-04T19:10:14.310Z,370.88
2023-01-04T19:13:03.197Z,470.10
2023-01-04T19:15:47.675Z,415.35
2023-01-04T19:18:36.858Z,326.55
2023-01-04T19:21:25.949Z,263.05
2023-01-04T19:24:08.353Z,309.38
2023-01-04T19:26:58.980Z,438.42
2023-01-04T19:29:47.447Z,441.52
2023-01-04T19:32:33.386Z,400.77
2023-01-04T19:35:22.220Z,281.02
2023-01-04T19:38:03.979Z,395.92
2023-01-04T19:40:52.337Z,406.88
2023-01-04T19:43:35.004Z,404.27
2023-01-04T19:46:24.465Z,355.48
2023-01-04T19:49:12.409Z,410.83
2023-01-04T19:52:05.326Z,413.75
2023-01-04T19:54:46.935Z,470.60
2023-01-04T19:57:29.151Z,390.50
2023-01-04T20:00:20.895Z,294.42
2023-01-04T20:03:10.073Z,353.98
2023-01-04T20:05:58.996Z,305.45
2023-01-04T20:08:42.600Z,347.63
2023-01-04T20:11:32.086Z,367.25
2023-01-04T20:14:20.148Z,377.88
2023-01-04T20:17:02.965Z,405.50
2023-01-04T20:19:45.139Z,367.55
2023-01-04T20:22:33.805Z,484.65
2023-01-04T20:25:22.988Z,372.02
2023-01-04T20:28:05.271Z,263.30
2023-01-04T20:30:53.971Z,370.80
2023-01-04T20:33:43.140Z,358.05
2023-01-04T20:36:30.914Z,281.00
2023-01-04T20:39:20.205Z,269.77
2023-01-04T20:42:20.931Z,248.05
2023-01-04T20:45:09.135Z,249.20
2023-01-04T20:47:50.871Z,258.70
2023-01-04T20:50:34.353Z,289.88
2023-01-04T20:53:22.836Z,279.33
2023-01-04T20:56:23.127Z,262.48
2023-01-04T20:59:11.830Z,307.08
2023-01-04T21:02:01.335Z,231.73
2023-01-04T21:04:42.936Z,351.10
2023-01-04T21:07:31.915Z,206.10
2023-01-04T21:10:14.207Z,258.23
2023-01-04T21:13:02.787Z,228.88
2023-01-04T21:15:46.197Z,199.38
2023-01-04T21:18:34.856Z,188.35
2023-01-04T21:21:21.310Z,222.70
2023-01-04T21:24:10.872Z,209.10
2023-01-04T21:26:59.781Z,224.05
2023-01-04T21:29:48.798Z,210.55
2023-01-04T21:32:31.676Z,203.85
2023-01-04T21:38:02.147Z,250.60
2023-01-04T21:40:50.813Z,226.45
2023-01-04T21:43:33.156Z,248.98
2023-01-04T21:46:23.895Z,254.65
2023-01-04T21:49:08.161Z,244.45
2023-01-04T21:51:56.910Z,255.95
2023-01-04T21:54:45.804Z,212.23
2023-01-04T21:57:34.737Z,221.00
2023-01-04T22:00:19.144Z,211.80
2023-01-04T22:03:08.029Z,197.82
2023-01-04T22:05:50.121Z,226.43
2023-01-04T22:08:38.875Z,268.65
2023-01-04T22:11:28.884Z,227.55
2023-01-04T22:14:11.647Z,244.10
2023-01-04T22:17:00.967Z,223.52
2023-01-04T22:19:49.136Z,267.45
2023-01-04T22:22:30.949Z,239.35
2023-01-04T22:25:19.853Z,261.30
2023-01-04T22:28:02.621Z,254.25
2023-01-04T22:30:51.865Z,250.70
2023-01-04T22:33:41.184Z,274.23
2023-01-04T22:36:30.205Z,273.92
2023-01-04T22:39:12.852Z,297.58
2023-01-04T22:42:01.810Z,301.17
2023-01-04T22:44:44.130Z,274.67
2023-01-04T22:47:32.780Z,328.55
2023-01-04T22:50:15.229Z,305.35
2023-01-04T22:53:03.887Z,316.27
2023-01-04T22:56:23.532Z,350.48
2023-01-04T22:59:04.840Z,274.27
2023-01-04T23:01:48.170Z,309.92
2023-01-04T23:04:36.830Z,263.83
2023-01-04T23:07:19.142Z,312.92
2023-01-04T23:10:07.831Z,295.40
2023-01-04T23:12:56.762Z,292.42
2023-01-04T23:15:48.013Z,308.25
2023-01-04T23:18:30.131Z,265.83
2023-01-04T23:21:18.887Z,313.50
2023-01-04T23:24:01.145Z,377.92
2023-01-04T23:26:50.855Z,416.60
2023-01-04T23:29:33.141Z,345.90
2023-01-04T23:32:21.808Z,353.88
2023-01-04T23:35:17.776Z,311.33
2023-01-04T23:38:06.794Z,346.90
2023-01-04T23:41:01.716Z,307.92
2023-01-04T23:43:50.071Z,351.75
2023-01-04T23:46:31.762Z,354.55
2023-01-04T23:49:21.121Z,315.23
2023-01-04T23:52:03.721Z,347.20
2023-01-04T23:54:52.897Z,352.92
2023-01-04T23:57:35.108Z,368.38
